GCLA/SPC METAR and TAF weather

Enter ICAO airport designator
Station Type Date Time Source
GCLA METAR 2021/07/26 12:30 UTC NOAA

GCLA 261230Z 01012KT 340V060 9999 SCT020 25/21 Q1019


Station Type Date Time Source
GCLA Decoded METAR 2021/07/26 12:30 UTC NOAA

La Palma / Aeropuerto, Spain (GCLA) 28-37N 017-45W 31M
Jul 26, 2021 - 08:30 AM EDT / 2021.07.26 1230 UTC
Wind: from the N (010 degrees) at 14 MPH (12 KT) (direction variable):0
Visibility: greater than 7 mile(s):0
Sky conditions: partly cloudy
Temperature: 77 F (25 C)
Dew Point: 69 F (21 C)
Relative Humidity: 78%
Pressure (altimeter): 30.09 in. Hg (1019 hPa)
ob: GCLA 261230Z 01012KT 340V060 9999 SCT020 25/21 Q1019
cycle: 12

Station Type Date Time Source
GCLA TAF 2021/07/26 09:27 UTC NOAA

TAF GCLA 260800Z 2609/2709 02015KT 9999 SCT020 TX25/2614Z TN20/2706Z

Example: see airport list